This is the latest recevied weather packets stored in our database for station/object TF3AO-13. If no packets are shown the sender has not sent any weather packets the latest 10 day(s).
| Time | Temp. | Humidity | Pressure | Rain* | Wind** | Luminosity | Snow |
|---|---|---|---|---|---|---|---|
| 1788165484 | 57° F | 42% | 762.2 mmHg | - | - | - | - |
| 1788164884 | 56° F | 43% | 762.3 mmHg | - | - | - | - |
| 1788164284 | 57° F | 41% | 762.2 mmHg | - | - | - | - |
| 1788163684 | 68° F | 33% | 762.1 mmHg | - | - | - | - |
| 1788163084 | 69° F | 34% | 762.1 mmHg | - | - | - | - |
| 1788162484 | 62° F | 43% | 762.1 mmHg | - | - | - | - |
| 1788161884 | 47° F | 57% | 762.2 mmHg | - | - | - | - |
| 1788161284 | 47° F | 58% | 762.1 mmHg | - | - | - | - |
| 1788160684 | 46° F | 60% | 762.1 mmHg | - | - | - | - |
| 1788160084 | 45° F | 61% | 762.1 mmHg | - | - | - | - |
| 1788159484 | 44° F | 62% | 762.1 mmHg | - | - | - | - |
| 1788158884 | 44° F | 63% | 762 mmHg | - | - | - | - |
| 1788158284 | 44° F | 63% | 762.1 mmHg | - | - | - | - |
| 1788157684 | 43° F | 64% | 762 mmHg | - | - | - | - |
| 1788157084 | 42° F | 64% | 762 mmHg | - | - | - | - |
| 1788156484 | 42° F | 64% | 762 mmHg | - | - | - | - |
| 1788155884 | 43° F | 64% | 761.9 mmHg | - | - | - | - |
| 1788155284 | 43° F | 64% | 761.9 mmHg | - | - | - | - |
| 1788154684 | 43° F | 64% | 761.9 mmHg | - | - | - | - |
| 1788154084 | 43° F | 64% | 761.9 mmHg | - | - | - | - |
| 1788153484 | 42° F | 64% | 761.9 mmHg | - | - | - | - |
| 1788152884 | 43° F | 65% | 761.9 mmHg | - | - | - | - |
| 1788152284 | 43° F | 65% | 762 mmHg | - | - | - | - |
| 1788151684 | 43° F | 65% | 762 mmHg | - | - | - | - |
| 1788151084 | 42° F | 65% | 761.9 mmHg | - | - | - | - |
* Rain since midnight (hover to see other rain measurements)
** Current wind speed in m/s (hover to see current wind gust speed)